Time;durP1;ratioP1;P1;durP2;ratioP2;P2;SDS_P1;SDS_P2;PMS_P1;PMS_P2;Temp;Humidity;BMP_temperature;BMP_pressure;BME280_temperature;BME280_humidity;BME280_pressure;Samples;Min_cycle;Max_cycle;Signal;HPM_P1;HPM_P2
2021/03/26 00:00:50;;;;;;;2.38;0.90;;;;;;;;;;5018149;28;20037;-77
2021/03/26 00:03:21;;;;;;;1.98;1.00;;;;;;;;;;5019914;28;20025;-77
2021/03/26 00:05:47;;;;;;;2.63;1.05;;;;;;;;;;5035179;28;20037;-77
2021/03/26 00:08:13;;;;;;;3.00;1.02;;;;;;;;;;5018741;28;20031;-77
2021/03/26 00:10:39;;;;;;;1.80;1.00;;;;;;;;;;5018757;28;20048;-77
2021/03/26 00:13:04;;;;;;;1.87;0.90;;;;;;;;;;5035075;28;20571;-77
2021/03/26 00:15:30;;;;;;;1.87;0.90;;;;;;;;;;5018687;28;20044;-77
2021/03/26 00:17:55;;;;;;;2.33;1.10;;;;;;;;;;5018613;28;20116;-77
2021/03/26 00:20:20;;;;;;;2.93;1.10;;;;;;;;;;5052772;28;20115;-77
2021/03/26 00:22:46;;;;;;;1.57;0.90;;;;;;;;;;5052798;28;20120;-77
2021/03/26 00:25:11;;;;;;;1.97;1.10;;;;;;;;;;5052949;28;20043;-77
2021/03/26 00:27:37;;;;;;;2.40;1.10;;;;;;;;;;5018489;28;20037;-77
2021/03/26 00:30:07;;;;;;;3.10;0.90;;;;;;;;;;5018564;28;20032;-77
2021/03/26 00:32:33;;;;;;;1.65;0.95;;;;;;;;;;5035143;28;20037;-78
2021/03/26 00:34:58;;;;;;;2.37;0.90;;;;;;;;;;5034843;28;20048;-77
2021/03/26 00:37:25;;;;;;;1.80;0.97;;;;;;;;;;5035377;28;20458;-77
2021/03/26 00:39:50;;;;;;;;;;;;;;;;;;5035523;28;20501;-77
2021/03/26 00:42:15;;;;;;;2.47;1.00;;;;;;;;;;5034768;28;20007;-77
2021/03/26 00:44:41;;;;;;;2.30;1.03;;;;;;;;;;5018472;28;20039;-78
2021/03/26 00:47:06;;;;;;;2.23;1.00;;;;;;;;;;5034812;28;20104;-77
2021/03/26 00:49:31;;;;;;;2.10;1.00;;;;;;;;;;5018824;28;20035;-77
2021/03/26 00:51:57;;;;;;;1.60;0.80;;;;;;;;;;5034662;28;20031;-78
2021/03/26 00:54:22;;;;;;;2.00;1.00;;;;;;;;;;5052606;28;20116;-77
2021/03/26 00:56:47;;;;;;;2.07;0.90;;;;;;;;;;5052748;28;20072;-78
2021/03/26 00:59:13;;;;;;;1.87;1.00;;;;;;;;;;5018663;28;20036;-77
2021/03/26 01:01:39;;;;;;;2.20;0.97;;;;;;;;;;5052396;28;20406;-78
2021/03/26 01:04:05;;;;;;;1.60;0.90;;;;;;;;;;5018363;28;20033;-77
2021/03/26 01:06:30;;;;;;;1.60;0.90;;;;;;;;;;5018093;28;20037;-78
2021/03/26 01:08:55;;;;;;;1.97;0.80;;;;;;;;;;5018146;28;20727;-78
2021/03/26 01:11:26;;;;;;;2.07;0.80;;;;;;;;;;5035086;28;20036;-78
2021/03/26 01:13:51;;;;;;;2.22;0.93;;;;;;;;;;5021740;28;20036;-77
2021/03/26 01:16:17;;;;;;;2.10;0.90;;;;;;;;;;5021629;28;20032;-77
2021/03/26 01:18:43;;;;;;;2.00;1.00;;;;;;;;;;5021892;28;20036;-77
2021/03/26 01:21:09;;;;;;;2.43;1.10;;;;;;;;;;5037875;28;20669;-77
2021/03/26 01:23:35;;;;;;;;;;;;;;;;;;5039035;28;20392;-77
2021/03/26 01:26:00;;;;;;;1.90;0.90;;;;;;;;;;5037912;28;19909;-77
2021/03/26 01:28:27;;;;;;;1.77;1.00;;;;;;;;;;5021452;28;20450;-77
2021/03/26 01:30:52;;;;;;;3.40;1.10;;;;;;;;;;5005152;28;20480;-78
2021/03/26 01:33:19;;;;;;;2.03;0.90;;;;;;;;;;5037934;28;20099;-77
2021/03/26 01:35:44;;;;;;;2.47;0.82;;;;;;;;;;5021465;28;20047;-77
2021/03/26 01:38:09;;;;;;;1.97;1.10;;;;;;;;;;5021359;28;20032;-77
2021/03/26 01:40:44;;;;;;;2.27;0.90;;;;;;;;;;5021383;28;20087;-78
2021/03/26 01:43:14;;;;;;;2.05;0.90;;;;;;;;;;5021204;28;20033;-78
2021/03/26 01:45:40;;;;;;;2.40;1.10;;;;;;;;;;5037948;28;20530;-78
2021/03/26 01:48:06;;;;;;;2.53;1.00;;;;;;;;;;5004674;28;20052;-77
2021/03/26 01:50:33;;;;;;;2.30;1.00;;;;;;;;;;5021037;28;20090;-77
2021/03/26 01:52:58;;;;;;;;;;;;;;;;;;5021625;28;20033;-77
2021/03/26 01:55:36;;;;;;;2.22;1.00;;;;;;;;;;5055239;28;19916;-77
2021/03/26 01:58:02;;;;;;;2.10;1.05;;;;;;;;;;5022298;28;20033;-77
2021/03/26 02:00:38;;;;;;;2.00;1.00;;;;;;;;;;5004357;28;20083;-77
2021/03/26 02:03:17;;;;;;;2.63;1.10;;;;;;;;;;5020699;28;20037;-77
2021/03/26 02:05:43;;;;;;;2.15;1.02;;;;;;;;;;5021124;28;20549;-77
2021/03/26 02:08:11;;;;;;;2.40;1.03;;;;;;;;;;5020951;28;20045;-77
2021/03/26 02:10:37;;;;;;;2.03;0.93;;;;;;;;;;5021098;28;20475;-77
2021/03/26 02:13:04;;;;;;;2.37;1.20;;;;;;;;;;5020505;28;20124;-77
2021/03/26 02:15:40;;;;;;;3.20;1.20;;;;;;;;;;5021107;28;20394;-77
2021/03/26 02:18:06;;;;;;;2.33;1.05;;;;;;;;;;5021156;28;20037;-77
2021/03/26 02:20:34;;;;;;;2.60;1.00;;;;;;;;;;5037162;28;20395;-77
2021/03/26 02:23:13;;;;;;;1.90;0.90;;;;;;;;;;5054699;28;20385;-77
2021/03/26 02:25:38;;;;;;;2.28;1.00;;;;;;;;;;5003357;28;20587;-77
2021/03/26 02:28:04;;;;;;;2.00;1.00;;;;;;;;;;5036833;28;20044;-77
2021/03/26 02:30:31;;;;;;;2.63;0.90;;;;;;;;;;5020482;28;20040;-77
2021/03/26 02:32:57;;;;;;;2.00;0.93;;;;;;;;;;5036919;28;20035;-77
2021/03/26 02:35:32;;;;;;;2.80;1.30;;;;;;;;;;5020363;28;20033;-77
2021/03/26 02:37:58;;;;;;;1.40;0.80;;;;;;;;;;5054748;28;20067;-77
2021/03/26 02:40:41;;;;;;;2.85;1.13;;;;;;;;;;5036494;28;20069;-77
2021/03/26 02:43:23;;;;;;;2.13;1.00;;;;;;;;;;5037732;28;20037;-77
2021/03/26 02:45:58;;;;;;;1.55;0.90;;;;;;;;;;5036446;28;20071;-77
2021/03/26 02:48:41;;;;;;;2.78;1.20;;;;;;;;;;5036574;28;20111;-78
2021/03/26 02:51:18;;;;;;;1.77;0.90;;;;;;;;;;5021139;28;20033;-77
2021/03/26 02:54:02;;;;;;;3.28;1.20;;;;;;;;;;5021446;28;20032;-77
2021/03/26 02:56:38;;;;;;;2.83;1.13;;;;;;;;;;5037681;28;20032;-77
2021/03/26 02:59:08;;;;;;;2.90;1.33;;;;;;;;;;5036225;28;20033;-78
2021/03/26 03:01:36;;;;;;;1.90;0.95;;;;;;;;;;5019978;28;20029;-77
2021/03/26 03:04:25;;;;;;;1.95;0.93;;;;;;;;;;5036423;28;20072;-78
2021/03/26 03:06:53;;;;;;;1.95;1.00;;;;;;;;;;5006633;28;20403;-77
2021/03/26 03:09:19;;;;;;;2.83;0.98;;;;;;;;;;5019835;28;20492;-77
2021/03/26 03:12:02;;;;;;;2.30;1.10;;;;;;;;;;5035996;28;20043;-77
2021/03/26 03:14:30;;;;;;;2.47;1.13;;;;;;;;;;5020608;28;20028;-78
2021/03/26 03:17:18;;;;;;;2.40;1.10;;;;;;;;;;5019593;28;20055;-78
2021/03/26 03:19:49;;;;;;;2.00;1.00;;;;;;;;;;5020033;28;20368;-77
2021/03/26 03:22:45;;;;;;;1.88;1.00;;;;;;;;;;5053702;28;20033;-77
2021/03/26 03:25:21;;;;;;;2.80;1.20;;;;;;;;;;5023716;28;20069;-77
2021/03/26 03:28:08;;;;;;;2.20;1.20;;;;;;;;;;5020601;28;20492;-77
2021/03/26 03:31:05;;;;;;;1.83;1.00;;;;;;;;;;5039148;28;20122;-77
2021/03/26 03:33:52;;;;;;;2.60;1.13;;;;;;;;;;5053830;28;20056;-77
2021/03/26 03:36:19;;;;;;;2.30;1.20;;;;;;;;;;5052015;28;20036;-77
2021/03/26 03:38:56;;;;;;;2.78;1.10;;;;;;;;;;5019306;28;20483;-77
2021/03/26 03:41:25;;;;;;;;;;;;;;;;;;5003301;28;20480;-78
2021/03/26 03:44:12;;;;;;;1.92;1.05;;;;;;;;;;5053570;28;19947;-77
2021/03/26 03:47:11;;;;;;;2.22;1.00;;;;;;;;;;5037985;28;20036;-77
2021/03/26 03:49:40;;;;;;;2.22;1.00;;;;;;;;;;5017919;28;20483;-77
2021/03/26 03:52:21;;;;;;;2.00;1.10;;;;;;;;;;5052950;28;20040;-77
2021/03/26 03:54:57;;;;;;;2.17;1.17;;;;;;;;;;5036756;28;20025;-77
2021/03/26 03:57:28;;;;;;;2.17;1.13;;;;;;;;;;5019533;28;20115;-76
2021/03/26 04:00:00;;;;;;;2.28;1.00;;;;;;;;;;5018879;28;20040;-77
2021/03/26 04:02:42;;;;;;;2.45;1.10;;;;;;;;;;5019035;28;20146;-77
2021/03/26 04:05:26;;;;;;;1.60;0.88;;;;;;;;;;5035214;28;20054;-77
2021/03/26 04:08:04;;;;;;;2.67;1.15;;;;;;;;;;5035280;28;20029;-76
2021/03/26 04:10:31;;;;;;;2.00;1.13;;;;;;;;;;5020149;28;20083;-76
2021/03/26 04:13:05;;;;;;;1.85;1.00;;;;;;;;;;5018857;28;20116;-76
2021/03/26 04:15:40;;;;;;;2.28;1.13;;;;;;;;;;5018968;28;20040;-77
2021/03/26 04:18:18;;;;;;;2.67;1.20;;;;;;;;;;5019881;28;20057;-77
2021/03/26 04:20:53;;;;;;;2.40;1.13;;;;;;;;;;5018812;28;20037;-76
2021/03/26 04:23:22;;;;;;;1.90;1.00;;;;;;;;;;5019717;28;20119;-76
2021/03/26 04:26:06;;;;;;;2.38;1.10;;;;;;;;;;5034874;28;20163;-77
2021/03/26 04:28:38;;;;;;;2.40;1.00;;;;;;;;;;5052847;28;20114;-77
2021/03/26 04:31:10;;;;;;;3.17;1.17;;;;;;;;;;5018878;28;20033;-76
2021/03/26 04:33:35;;;;;;;2.30;1.08;;;;;;;;;;5018830;28;20033;-76
2021/03/26 04:36:02;;;;;;;2.00;1.10;;;;;;;;;;5018393;28;20567;-77
2021/03/26 04:38:47;;;;;;;2.70;1.25;;;;;;;;;;5018762;28;20041;-77
2021/03/26 04:41:17;;;;;;;2.05;0.95;;;;;;;;;;5018505;28;20032;-76
2021/03/26 04:43:45;;;;;;;2.00;1.08;;;;;;;;;;5034891;28;20061;-76
2021/03/26 04:46:53;;;;;;;3.15;1.10;;;;;;;;;;5035119;28;20032;-76
2021/03/26 04:49:39;;;;;;;2.10;0.90;;;;;;;;;;5001479;28;20395;-76
2021/03/26 04:52:15;;;;;;;2.42;1.25;;;;;;;;;;5022285;28;20547;-76
2021/03/26 04:55:05;;;;;;;1.70;1.10;;;;;;;;;;5022334;28;20087;-76
2021/03/26 04:57:52;;;;;;;3.22;1.27;;;;;;;;;;5038724;28;20025;-76
2021/03/26 05:00:54;;;;;;;2.38;0.98;;;;;;;;;;5040759;28;20047;-76
2021/03/26 05:03:21;;;;;;;2.30;1.13;;;;;;;;;;5006806;23;20057;-78
2021/03/26 05:05:56;;;;;;;2.35;1.13;;;;;;;;;;4982660;28;20408;-78
2021/03/26 05:08:22;;;;;;;3.05;1.27;;;;;;;;;;4999692;28;20032;-77
2021/03/26 05:10:47;;;;;;;2.30;1.30;;;;;;;;;;4995100;28;20409;-77
2021/03/26 05:13:25;;;;;;;1.80;1.00;;;;;;;;;;4998823;28;20488;-77
2021/03/26 05:15:53;;;;;;;2.00;1.20;;;;;;;;;;4981109;28;20038;-77
2021/03/26 05:18:32;;;;;;;2.47;1.33;;;;;;;;;;4983141;28;20054;-77
2021/03/26 05:21:26;;;;;;;2.55;1.20;;;;;;;;;;4979158;28;20385;-77
2021/03/26 05:24:12;;;;;;;1.92;1.05;;;;;;;;;;4992680;28;20077;-77
2021/03/26 05:26:38;;;;;;;3.22;1.30;;;;;;;;;;4981201;28;20045;-78
2021/03/26 05:29:03;;;;;;;2.80;1.23;;;;;;;;;;4979254;28;20030;-77
2021/03/26 05:31:38;;;;;;;2.37;1.30;;;;;;;;;;4979066;28;20537;-77
2021/03/26 05:34:11;;;;;;;1.88;0.95;;;;;;;;;;4979196;28;20038;-78
2021/03/26 05:36:40;;;;;;;2.88;1.30;;;;;;;;;;4963378;28;20035;-77
2021/03/26 05:39:19;;;;;;;2.03;1.30;;;;;;;;;;4973185;28;20533;-77
2021/03/26 05:42:15;;;;;;;2.65;1.02;;;;;;;;;;4959643;28;20042;-77
2021/03/26 05:44:59;;;;;;;2.10;1.00;;;;;;;;;;4959392;28;20030;-77
2021/03/26 05:47:36;;;;;;;2.67;1.30;;;;;;;;;;4945150;28;20449;-77
2021/03/26 05:50:25;;;;;;;2.30;1.17;;;;;;;;;;4976974;28;20545;-77
2021/03/26 05:53:16;;;;;;;3.05;1.38;;;;;;;;;;4959396;28;20042;-77
2021/03/26 05:56:22;;;;;;;2.25;1.05;;;;;;;;;;4960668;28;20482;-78
2021/03/26 05:58:57;;;;;;;2.47;1.20;;;;;;;;;;4942361;28;20086;-77
2021/03/26 06:01:40;;;;;;;2.10;1.20;;;;;;;;;;4959581;28;20462;-77
2021/03/26 06:04:30;;;;;;;4.85;1.13;;;;;;;;;;4944111;28;20042;-77
2021/03/26 06:07:20;;;;;;;2.75;1.17;;;;;;;;;;4976690;28;20479;-77
2021/03/26 06:09:52;;;;;;;3.20;1.20;;;;;;;;;;4962204;28;20034;-78
2021/03/26 06:12:52;;;;;;;2.95;1.35;;;;;;;;;;4976881;28;20520;-77
2021/03/26 06:15:46;;;;;;;3.30;1.38;;;;;;;;;;4984084;28;20461;-77
2021/03/26 06:18:31;;;;;;;3.05;1.40;;;;;;;;;;4954987;28;20046;-77
2021/03/26 06:21:23;;;;;;;2.20;1.20;;;;;;;;;;4958723;28;20486;-77
2021/03/26 06:23:57;;;;;;;2.38;1.35;;;;;;;;;;4976146;28;20034;-78
2021/03/26 06:26:58;;;;;;;2.85;1.30;;;;;;;;;;4959838;28;20042;-77
2021/03/26 06:29:38;;;;;;;3.15;1.30;;;;;;;;;;4958803;28;20031;-77
2021/03/26 06:32:25;;;;;;;3.08;1.40;;;;;;;;;;4928377;28;20050;-77
2021/03/26 06:35:38;;;;;;;2.08;1.10;;;;;;;;;;4977503;28;20045;-77
2021/03/26 06:38:22;;;;;;;2.60;1.20;;;;;;;;;;4967915;28;20089;-77
2021/03/26 06:40:57;;;;;;;2.22;1.15;;;;;;;;;;4977713;28;20421;-77
2021/03/26 06:43:40;;;;;;;2.08;1.17;;;;;;;;;;4944462;28;20114;-77
2021/03/26 06:46:43;;;;;;;2.28;1.15;;;;;;;;;;4976112;28;20118;-77
2021/03/26 06:49:27;;;;;;;3.75;1.58;;;;;;;;;;4975784;28;20027;-76
2021/03/26 06:52:00;;;;;;;2.55;1.40;;;;;;;;;;4958617;28;20394;-77
2021/03/26 06:54:50;;;;;;;2.45;1.42;;;;;;;;;;4958966;28;20449;-77
2021/03/26 06:57:47;;;;;;;2.78;1.33;;;;;;;;;;4961862;28;20117;-77
2021/03/26 07:00:25;;;;;;;3.97;1.50;;;;;;;;;;4975637;28;20043;-77
2021/03/26 07:03:25;;;;;;;3.40;1.30;;;;;;;;;;4958101;28;20047;-77
2021/03/26 07:06:27;;;;;;;2.83;1.35;;;;;;;;;;4974042;28;20453;-77
2021/03/26 07:09:16;;;;;;;2.08;1.20;;;;;;;;;;4975522;28;20038;-77
2021/03/26 07:12:00;;;;;;;2.33;1.10;;;;;;;;;;4961572;28;20027;-77
2021/03/26 07:14:52;;;;;;;3.03;1.33;;;;;;;;;;4975103;28;20039;-77
2021/03/26 07:17:45;;;;;;;2.78;1.50;;;;;;;;;;4961685;28;20042;-78
2021/03/26 07:20:16;;;;;;;2.38;1.20;;;;;;;;;;4977507;28;20121;-77
2021/03/26 07:23:00;;;;;;;3.30;1.40;;;;;;;;;;4977318;28;20074;-77
2021/03/26 07:25:53;;;;;;;2.33;1.33;;;;;;;;;;4976362;28;20038;-78
2021/03/26 07:28:38;;;;;;;2.42;1.20;;;;;;;;;;4962528;28;20054;-77
2021/03/26 07:31:34;;;;;;;4.30;1.23;;;;;;;;;;4944510;28;20034;-77
2021/03/26 07:34:54;;;;;;;2.63;1.33;;;;;;;;;;4975790;28;20070;-77
2021/03/26 07:37:23;;;;;;;2.28;1.20;;;;;;;;;;4939100;29;20039;-77
2021/03/26 07:40:10;;;;;;;3.88;1.40;;;;;;;;;;4939148;28;20038;-77
2021/03/26 07:43:12;;;;;;;4.10;1.40;;;;;;;;;;4974679;28;20043;-77
2021/03/26 07:45:56;;;;;;;2.15;1.20;;;;;;;;;;4980060;28;20038;-77
2021/03/26 07:48:27;;;;;;;2.67;1.30;;;;;;;;;;4989587;28;20113;-77
2021/03/26 07:50:56;;;;;;;3.10;1.15;;;;;;;;;;4994758;28;20058;-77
2021/03/26 07:53:34;;;;;;;2.63;1.40;;;;;;;;;;4993987;28;20033;-77
2021/03/26 07:56:33;;;;;;;3.75;1.27;;;;;;;;;;4993472;28;20210;-77
2021/03/26 07:59:18;;;;;;;4.22;1.40;;;;;;;;;;4976574;28;20031;-77
2021/03/26 08:02:17;;;;;;;2.75;1.30;;;;;;;;;;4958408;28;20039;-78
2021/03/26 08:04:56;;;;;;;2.60;1.20;;;;;;;;;;4946859;28;20106;-78
2021/03/26 08:07:39;;;;;;;2.75;1.33;;;;;;;;;;4945215;28;20034;-77
2021/03/26 08:10:34;;;;;;;3.42;1.40;;;;;;;;;;4942697;28;20035;-77
2021/03/26 08:13:11;;;;;;;2.60;1.30;;;;;;;;;;4922179;28;20038;-77
2021/03/26 08:15:59;;;;;;;3.03;1.40;;;;;;;;;;4975142;28;20039;-77
2021/03/26 08:18:49;;;;;;;2.13;1.30;;;;;;;;;;4933092;28;20039;-78
2021/03/26 08:21:22;;;;;;;3.17;1.30;;;;;;;;;;4960900;28;20034;-77
2021/03/26 08:24:25;;;;;;;2.70;1.38;;;;;;;;;;4961432;28;20473;-77
2021/03/26 08:26:56;;;;;;;3.28;1.50;;;;;;;;;;4980226;28;20035;-77
2021/03/26 08:29:33;;;;;;;3.35;1.30;;;;;;;;;;4947737;28;20488;-77
2021/03/26 08:32:28;;;;;;;2.63;1.25;;;;;;;;;;4947452;28;20035;-77
2021/03/26 08:35:17;;;;;;;2.80;1.35;;;;;;;;;;4965673;28;20067;-77
2021/03/26 08:37:52;;;;;;;2.90;1.20;;;;;;;;;;4962601;28;20031;-77
2021/03/26 08:40:22;;;;;;;2.58;1.30;;;;;;;;;;4980254;28;20078;-77
2021/03/26 08:42:50;;;;;;;2.40;1.27;;;;;;;;;;4963135;28;20027;-78
2021/03/26 08:45:30;;;;;;;2.78;1.23;;;;;;;;;;4947648;28;20034;-79
2021/03/26 08:48:01;;;;;;;2.97;1.33;;;;;;;;;;4962901;28;20039;-79
2021/03/26 08:51:08;;;;;;;2.97;1.52;;;;;;;;;;4947159;28;20409;-78
2021/03/26 08:54:02;;;;;;;2.72;1.27;;;;;;;;;;4947240;28;20034;-78
2021/03/26 08:56:34;;;;;;;2.83;1.30;;;;;;;;;;4962672;28;20030;-78
2021/03/26 08:59:12;;;;;;;2.80;1.38;;;;;;;;;;4981914;28;20039;-78
2021/03/26 09:02:10;;;;;;;4.45;1.30;;;;;;;;;;4981429;28;20057;-78
2021/03/26 09:04:58;;;;;;;2.17;1.23;;;;;;;;;;4979586;28;20031;-77
2021/03/26 09:07:39;;;;;;;3.78;1.40;;;;;;;;;;4962258;28;20027;-78
2021/03/26 09:10:47;;;;;;;3.40;1.50;;;;;;;;;;4978157;28;20548;-78
2021/03/26 09:13:27;;;;;;;2.28;1.30;;;;;;;;;;4967613;28;20485;-78
2021/03/26 09:15:58;;;;;;;2.05;1.13;;;;;;;;;;4998322;28;20034;-78
2021/03/26 09:18:34;;;;;;;3.35;1.50;;;;;;;;;;4982078;28;20038;-78
2021/03/26 09:21:18;;;;;;;3.25;1.30;;;;;;;;;;4962844;28;20038;-78
2021/03/26 09:23:58;;;;;;;3.42;1.35;;;;;;;;;;4979157;28;20119;-78
2021/03/26 09:26:46;;;;;;;3.53;1.50;;;;;;;;;;4962451;28;20042;-78
2021/03/26 09:29:18;;;;;;;2.72;1.40;;;;;;;;;;4979061;28;20042;-77
2021/03/26 09:31:48;;;;;;;2.28;1.35;;;;;;;;;;4962065;28;20066;-77
2021/03/26 09:34:23;;;;;;;2.97;1.23;;;;;;;;;;4961816;28;20035;-77
2021/03/26 09:37:20;;;;;;;2.88;1.50;;;;;;;;;;4945501;28;20046;-77
2021/03/26 09:39:48;;;;;;;2.50;1.38;;;;;;;;;;4959860;28;20066;-77
2021/03/26 09:42:20;;;;;;;3.65;1.35;;;;;;;;;;4977781;28;20089;-78
2021/03/26 09:45:22;;;;;;;2.65;1.48;;;;;;;;;;4996583;28;20065;-77
2021/03/26 09:48:25;;;;;;;2.97;1.40;;;;;;;;;;4943431;28;20031;-77
2021/03/26 09:50:58;;;;;;;2.78;1.65;;;;;;;;;;4960042;28;20039;-77
2021/03/26 09:53:23;;;;;;;3.05;1.30;;;;;;;;;;4960962;28;20058;-77
2021/03/26 09:55:48;;;;;;;4.00;1.53;;;;;;;;;;4960757;28;20038;-77
2021/03/26 09:58:39;;;;;;;3.40;1.63;;;;;;;;;;4960965;28;20038;-77
2021/03/26 10:01:17;;;;;;;2.53;1.30;;;;;;;;;;4976644;28;20062;-77
2021/03/26 10:03:48;;;;;;;2.58;1.50;;;;;;;;;;4962790;28;20038;-77
2021/03/26 10:06:25;;;;;;;3.92;1.58;;;;;;;;;;4978448;28;20034;-77
2021/03/26 10:11:29;;;;;;;2.38;1.40;;;;;;;;;;4979100;28;20084;-77
2021/03/26 10:14:08;;;;;;;3.72;1.60;;;;;;;;;;4978342;28;20039;-77
2021/03/26 10:16:33;;;;;;;3.92;1.50;;;;;;;;;;4978449;28;20039;-77
2021/03/26 10:19:10;;;;;;;3.03;1.40;;;;;;;;;;4995924;28;20397;-77
2021/03/26 10:21:36;;;;;;;3.13;1.52;;;;;;;;;;4978294;28;20377;-77
2021/03/26 10:24:28;;;;;;;2.77;1.57;;;;;;;;;;4965091;28;20027;-77
2021/03/26 10:27:17;;;;;;;2.53;1.38;;;;;;;;;;4958719;28;20031;-77
2021/03/26 10:30:01;;;;;;;3.53;1.33;;;;;;;;;;4959297;28;20494;-77
2021/03/26 10:32:28;;;;;;;2.97;1.27;;;;;;;;;;4976185;28;20093;-77
2021/03/26 10:34:55;;;;;;;3.58;1.40;;;;;;;;;;4958553;28;20485;-77
2021/03/26 10:37:43;;;;;;;3.25;1.40;;;;;;;;;;4958593;28;20391;-77
2021/03/26 10:40:20;;;;;;;2.55;1.10;;;;;;;;;;4958453;28;20035;-77
2021/03/26 10:43:06;;;;;;;2.80;1.30;;;;;;;;;;4974486;28;20486;-77
2021/03/26 10:45:40;;;;;;;4.25;1.70;;;;;;;;;;4957879;28;20038;-77
2021/03/26 10:48:17;;;;;;;2.97;1.42;;;;;;;;;;4958184;28;20042;-77
2021/03/26 10:50:45;;;;;;;4.18;1.60;;;;;;;;;;4958472;28;20116;-77
2021/03/26 10:53:18;;;;;;;2.90;1.40;;;;;;;;;;4975365;28;20043;-78
2021/03/26 10:55:46;;;;;;;2.42;1.25;;;;;;;;;;4958554;28;20118;-77
2021/03/26 10:58:14;;;;;;;2.63;1.35;;;;;;;;;;4958436;28;20039;-77
2021/03/26 11:00:41;;;;;;;2.95;1.27;;;;;;;;;;4974178;28;20045;-77
2021/03/26 11:03:16;;;;;;;;;;;;;;;;;;4958591;28;20414;-77
2021/03/26 11:05:51;;;;;;;2.75;1.27;;;;;;;;;;4974071;28;20389;-77
2021/03/26 11:08:20;;;;;;;3.60;1.60;;;;;;;;;;4957819;28;20034;-77
2021/03/26 11:10:55;;;;;;;2.92;1.42;;;;;;;;;;4973901;28;20574;-77
2021/03/26 11:13:39;;;;;;;3.03;1.30;;;;;;;;;;4957820;28;20039;-77
2021/03/26 11:16:19;;;;;;;3.15;1.30;;;;;;;;;;4975380;28;20031;-77
2021/03/26 11:19:08;;;;;;;2.42;1.23;;;;;;;;;;4957775;28;20091;-77
2021/03/26 11:21:43;;;;;;;2.80;1.60;;;;;;;;;;4975003;28;20041;-77
2021/03/26 11:24:09;;;;;;;3.30;1.42;;;;;;;;;;4957807;28;20421;-77
2021/03/26 11:27:00;;;;;;;3.28;1.50;;;;;;;;;;4959200;28;20043;-78
2021/03/26 11:29:32;;;;;;;3.80;1.40;;;;;;;;;;4952637;28;20042;-77
2021/03/26 11:32:24;;;;;;;2.63;1.42;;;;;;;;;;4957630;28;20027;-77
2021/03/26 11:35:03;;;;;;;3.20;1.25;;;;;;;;;;4957972;28;20512;-77
2021/03/26 11:37:57;;;;;;;2.63;1.50;;;;;;;;;;4973665;28;20035;-77
2021/03/26 11:40:37;;;;;;;3.30;1.60;;;;;;;;;;4974420;28;20403;-77
2021/03/26 11:43:09;;;;;;;2.03;1.20;;;;;;;;;;4957821;28;20039;-77
2021/03/26 11:45:42;;;;;;;2.53;1.33;;;;;;;;;;4958308;28;20030;-77
2021/03/26 11:48:11;;;;;;;2.22;1.27;;;;;;;;;;4975251;28;20042;-78
2021/03/26 11:50:47;;;;;;;3.58;1.40;;;;;;;;;;4958154;28;20042;-77
2021/03/26 11:53:21;;;;;;;3.03;1.35;;;;;;;;;;4974484;28;20026;-78
2021/03/26 11:56:00;;;;;;;2.30;1.30;;;;;;;;;;4973679;28;20035;-78
2021/03/26 11:58:39;;;;;;;4.97;1.60;;;;;;;;;;4956930;28;20035;-77
2021/03/26 12:01:08;;;;;;;3.15;1.50;;;;;;;;;;4957380;28;20503;-77
2021/03/26 12:03:57;;;;;;;2.30;1.30;;;;;;;;;;4960528;28;20034;-78
2021/03/26 12:06:30;;;;;;;2.67;1.40;;;;;;;;;;4971006;28;20030;-77
2021/03/26 12:08:58;;;;;;;3.00;1.52;;;;;;;;;;5007087;28;20061;-77
2021/03/26 12:11:29;;;;;;;4.25;1.40;;;;;;;;;;4997313;28;20052;-77
2021/03/26 12:14:13;;;;;;;2.75;1.42;;;;;;;;;;5002771;22;20074;-76
2021/03/26 12:16:42;;;;;;;2.75;1.30;;;;;;;;;;5017418;28;20054;-75
2021/03/26 12:19:18;;;;;;;3.20;1.40;;;;;;;;;;4984515;28;20434;-75
2021/03/26 12:22:15;;;;;;;2.92;1.40;;;;;;;;;;5009291;28;20030;-75
2021/03/26 12:24:57;;;;;;;3.88;1.48;;;;;;;;;;5005009;28;20042;-75
2021/03/26 12:27:30;;;;;;;2.65;1.50;;;;;;;;;;5011545;28;20049;-75
2021/03/26 12:30:01;;;;;;;3.97;1.52;;;;;;;;;;5028233;28;20068;-75
2021/03/26 12:32:42;;;;;;;3.17;1.70;;;;;;;;;;5027914;28;20046;-76
2021/03/26 12:35:20;;;;;;;3.80;1.80;;;;;;;;;;5011932;28;20038;-75
2021/03/26 12:37:47;;;;;;;4.10;1.70;;;;;;;;;;5012862;28;20045;-74
2021/03/26 12:40:27;;;;;;;3.42;1.70;;;;;;;;;;5008632;28;20417;-74
2021/03/26 12:42:58;;;;;;;4.32;1.83;;;;;;;;;;4995702;28;20030;-74
2021/03/26 12:45:26;;;;;;;3.40;1.73;;;;;;;;;;5028686;28;20052;-74
2021/03/26 12:47:57;;;;;;;4.03;1.60;;;;;;;;;;5011581;28;20414;-74
2021/03/26 12:50:37;;;;;;;3.80;1.75;;;;;;;;;;5028038;28;20575;-74
2021/03/26 12:53:04;;;;;;;4.32;2.10;;;;;;;;;;5028005;28;20069;-74
2021/03/26 12:55:29;;;;;;;3.83;1.90;;;;;;;;;;5028667;28;20033;-74
2021/03/26 12:58:13;;;;;;;4.43;1.97;;;;;;;;;;5012913;28;20440;-74
2021/03/26 13:00:44;;;;;;;4.15;1.90;;;;;;;;;;5012629;28;20504;-74
2021/03/26 13:03:24;;;;;;;4.55;1.95;;;;;;;;;;5023481;28;20046;-74
2021/03/26 13:06:06;;;;;;;4.15;1.88;;;;;;;;;;5003460;28;20386;-75
2021/03/26 13:08:32;;;;;;;4.68;2.20;;;;;;;;;;5028563;28;20033;-74
2021/03/26 13:11:12;;;;;;;4.93;2.10;;;;;;;;;;5030795;28;20040;-74
2021/03/26 13:13:54;;;;;;;4.95;2.05;;;;;;;;;;5030153;28;20420;-74
2021/03/26 13:16:23;;;;;;;4.45;1.90;;;;;;;;;;5015292;28;20492;-74
2021/03/26 13:18:51;;;;;;;4.45;2.10;;;;;;;;;;5031554;28;20077;-74
2021/03/26 13:21:38;;;;;;;5.38;1.92;;;;;;;;;;5012712;28;20441;-74
2021/03/26 13:24:31;;;;;;;5.75;2.42;;;;;;;;;;5031340;28;20034;-74
2021/03/26 13:27:20;;;;;;;5.68;2.20;;;;;;;;;;5006430;28;20116;-74
2021/03/26 13:29:55;;;;;;;4.07;2.05;;;;;;;;;;5014148;28;20038;-74
2021/03/26 13:32:21;;;;;;;5.22;2.17;;;;;;;;;;4997579;28;20050;-74
2021/03/26 13:34:47;;;;;;;4.80;2.10;;;;;;;;;;5011642;28;20031;-74
2021/03/26 13:37:22;;;;;;;5.77;2.50;;;;;;;;;;5011670;28;20125;-74
2021/03/26 13:39:50;;;;;;;5.07;2.22;;;;;;;;;;4995022;28;20030;-74
2021/03/26 13:42:19;;;;;;;5.47;2.40;;;;;;;;;;5011149;28;20046;-73
2021/03/26 13:44:51;;;;;;;5.38;2.28;;;;;;;;;;5011664;28;20508;-74
2021/03/26 13:47:21;;;;;;;4.22;2.10;;;;;;;;;;5011372;28;20525;-73
2021/03/26 13:49:54;;;;;;;5.05;2.47;;;;;;;;;;5011116;28;20113;-73
2021/03/26 13:52:38;;;;;;;5.70;2.38;;;;;;;;;;5011001;28;20039;-74
2021/03/26 13:55:37;;;;;;;5.25;2.45;;;;;;;;;;5011211;28;20030;-74
2021/03/26 13:58:27;;;;;;;6.70;2.42;;;;;;;;;;5010780;28;20052;-73
2021/03/26 14:00:55;;;;;;;5.95;2.33;;;;;;;;;;4994772;28;20378;-74
2021/03/26 14:03:25;;;;;;;5.22;2.40;;;;;;;;;;4996124;28;20030;-73
2021/03/26 14:05:52;;;;;;;4.00;2.22;;;;;;;;;;5010833;28;20034;-74
2021/03/26 14:08:25;;;;;;;4.95;2.10;;;;;;;;;;5010823;28;20069;-73
2021/03/26 14:11:22;;;;;;;5.15;2.38;;;;;;;;;;5011232;28;20441;-74
2021/03/26 14:14:20;;;;;;;4.27;2.30;;;;;;;;;;5011184;28;20492;-74
2021/03/26 14:16:46;;;;;;;5.93;2.65;;;;;;;;;;4994151;28;20100;-74
2021/03/26 14:19:17;;;;;;;;;;;;;;;;;;4994285;28;20030;-74
2021/03/26 14:21:50;;;;;;;4.18;2.08;;;;;;;;;;4993528;28;20020;-74
2021/03/26 14:24:24;;;;;;;5.35;2.60;;;;;;;;;;5010520;28;20499;-74
2021/03/26 14:27:03;;;;;;;4.47;2.22;;;;;;;;;;4994254;28;20034;-73
2021/03/26 14:29:53;;;;;;;5.70;2.70;;;;;;;;;;5010472;28;20030;-74
2021/03/26 14:32:25;;;;;;;4.50;2.38;;;;;;;;;;5010387;28;20035;-74
2021/03/26 14:34:56;;;;;;;5.07;2.22;;;;;;;;;;5010567;28;20485;-74
2021/03/26 14:37:26;;;;;;;8.05;2.50;;;;;;;;;;4994004;28;20042;-73
2021/03/26 14:39:52;;;;;;;4.40;2.30;;;;;;;;;;5010287;28;20034;-74
2021/03/26 14:42:24;;;;;;;6.13;2.57;;;;;;;;;;5010148;28;20549;-74
2021/03/26 14:44:55;;;;;;;4.95;2.38;;;;;;;;;;4996278;28;20033;-75
2021/03/26 14:47:23;;;;;;;4.82;1.98;;;;;;;;;;5013048;28;20036;-75
2021/03/26 14:49:49;;;;;;;5.47;2.10;;;;;;;;;;5029169;28;20030;-75
2021/03/26 14:52:38;;;;;;;6.30;2.50;;;;;;;;;;5014169;28;20041;-75
2021/03/26 14:55:07;;;;;;;5.80;2.22;;;;;;;;;;5029371;28;20124;-75
2021/03/26 14:57:37;;;;;;;4.47;2.13;;;;;;;;;;5014778;28;20042;-75
2021/03/26 15:00:17;;;;;;;5.05;2.22;;;;;;;;;;5012978;28;20026;-75
2021/03/26 15:02:45;;;;;;;4.97;2.15;;;;;;;;;;5029113;28;20049;-75
2021/03/26 15:05:21;;;;;;;4.72;2.10;;;;;;;;;;5029318;28;20486;-75
2021/03/26 15:07:46;;;;;;;5.20;2.15;;;;;;;;;;5012881;28;20413;-75
2021/03/26 15:10:30;;;;;;;5.13;2.33;;;;;;;;;;5029388;28;20037;-75
2021/03/26 15:13:14;;;;;;;5.32;2.30;;;;;;;;;;4996745;28;20030;-75
2021/03/26 15:15:42;;;;;;;5.70;2.25;;;;;;;;;;5014084;28;20547;-74
2021/03/26 15:18:26;;;;;;;5.15;2.25;;;;;;;;;;5029364;28;20129;-74
2021/03/26 15:21:13;;;;;;;4.18;1.98;;;;;;;;;;5027739;28;20044;-74
2021/03/26 15:23:42;;;;;;;4.30;2.25;;;;;;;;;;4978221;28;20125;-75
2021/03/26 15:26:20;;;;;;;3.85;1.80;;;;;;;;;;4993760;28;20469;-75
2021/03/26 15:28:58;;;;;;;3.70;2.03;;;;;;;;;;5013922;28;20124;-75
2021/03/26 15:31:32;;;;;;;4.70;2.30;;;;;;;;;;5012765;28;20477;-75
2021/03/26 15:34:16;;;;;;;3.85;1.90;;;;;;;;;;5009650;28;20034;-75
2021/03/26 15:37:13;;;;;;;5.65;2.10;;;;;;;;;;5009215;28;20125;-74
2021/03/26 15:39:52;;;;;;;4.57;2.00;;;;;;;;;;4993001;28;20493;-74
2021/03/26 15:42:20;;;;;;;3.88;1.90;;;;;;;;;;4992595;28;20030;-75
2021/03/26 15:45:09;;;;;;;4.93;2.20;;;;;;;;;;5009082;28;20395;-74
2021/03/26 15:47:39;;;;;;;4.57;2.00;;;;;;;;;;5009245;28;20061;-75